Time;durP1;ratioP1;P1;durP2;ratioP2;P2;SDS_P1;SDS_P2;PMS_P1;PMS_P2;Temp;Humidity;BMP_temperature;BMP_pressure;BME280_temperature;BME280_humidity;BME280_pressure;Samples;Min_cycle;Max_cycle;Signal;HPM_P1;HPM_P2
2024/01/16 00:00:50;;;;;;;7.40;2.70;;;2.50;99.90;;;;;;4142052;28;20030;-72
2024/01/16 00:02:50;;;;;;;8.57;2.80;;;2.50;99.90;;;;;;4144104;28;20038;-72
2024/01/16 00:04:51;;;;;;;8.32;3.50;;;2.50;99.90;;;;;;4144314;28;20040;-73
2024/01/16 00:06:52;;;;;;;6.38;3.15;;;2.40;99.90;;;;;;4130351;28;20488;-72
2024/01/16 00:08:52;;;;;;;6.57;2.47;;;2.40;99.90;;;;;;4127549;28;20499;-73
2024/01/16 00:10:53;;;;;;;4.22;2.17;;;2.40;99.90;;;;;;4131438;28;20068;-73
2024/01/16 00:12:54;;;;;;;5.15;2.55;;;2.40;99.90;;;;;;4143425;28;20045;-73
2024/01/16 00:14:54;;;;;;;7.07;2.60;;;2.40;99.90;;;;;;4156180;28;20029;-73
2024/01/16 00:16:55;;;;;;;6.20;2.53;;;2.40;99.90;;;;;;4142394;28;20038;-73
2024/01/16 00:18:56;;;;;;;6.85;3.22;;;2.40;99.90;;;;;;4126423;28;20042;-73
2024/01/16 00:20:56;;;;;;;6.30;2.92;;;2.40;99.90;;;;;;4115560;28;20026;-70
2024/01/16 00:22:57;;;;;;;4.60;2.60;;;2.40;99.90;;;;;;4109831;28;20106;-69
2024/01/16 00:24:57;;;;;;;3.83;2.50;;;2.40;99.90;;;;;;4126853;28;20510;-72
2024/01/16 00:26:58;;;;;;;6.43;3.05;;;2.40;99.90;;;;;;4124929;28;20726;-69
2024/01/16 00:28:58;;;;;;;4.40;2.63;;;2.40;99.90;;;;;;4094791;28;20500;-69
2024/01/16 00:30:59;;;;;;;8.30;3.17;;;2.40;99.90;;;;;;4126237;28;20483;-69
2024/01/16 00:33:00;;;;;;;7.47;2.95;;;2.40;99.90;;;;;;4137249;28;20046;-68
2024/01/16 00:35:00;;;;;;;7.82;3.10;;;2.40;99.90;;;;;;4143840;28;20379;-69
2024/01/16 00:37:01;;;;;;;4.80;3.05;;;2.40;99.90;;;;;;4142637;28;20498;-68
2024/01/16 00:39:03;;;;;;;7.00;3.30;;;2.40;99.90;;;;;;4145089;28;20525;-69
2024/01/16 00:41:03;;;;;;;6.20;3.40;;;2.40;99.90;;;;;;4144987;28;20033;-73
2024/01/16 00:43:04;;;;;;;6.50;2.90;;;2.40;99.90;;;;;;4145892;28;20380;-73
2024/01/16 00:45:05;;;;;;;6.32;3.20;;;2.40;99.90;;;;;;4146137;28;20034;-73
2024/01/16 00:47:06;;;;;;;4.97;2.90;;;2.50;99.90;;;;;;4118911;28;20282;-71
2024/01/16 00:49:07;;;;;;;8.93;3.55;;;2.40;99.90;;;;;;4089130;28;20462;-72
2024/01/16 00:51:08;;;;;;;8.55;3.80;;;2.40;99.90;;;;;;4102985;28;20076;-71
2024/01/16 00:53:08;;;;;;;6.25;3.38;;;2.40;99.90;;;;;;4099413;28;20783;-74
2024/01/16 00:55:09;;;;;;;6.88;3.50;;;2.40;99.90;;;;;;4138684;28;20026;-73
2024/01/16 00:57:09;;;;;;;7.68;3.67;;;2.50;99.90;;;;;;4140094;28;20042;-73
2024/01/16 00:59:10;;;;;;;5.75;3.65;;;2.50;99.90;;;;;;4127399;28;20058;-73
2024/01/16 01:01:11;;;;;;;5.50;3.33;;;2.50;99.90;;;;;;4145421;28;20022;-74
2024/01/16 01:03:11;;;;;;;8.32;3.58;;;2.50;99.90;;;;;;4155298;28;20033;-73
2024/01/16 01:05:12;;;;;;;7.95;3.40;;;2.50;99.90;;;;;;4120821;28;20466;-73
2024/01/16 01:07:14;;;;;;;8.20;3.88;;;2.50;99.90;;;;;;4145737;28;20033;-74
2024/01/16 01:09:14;;;;;;;7.28;3.75;;;2.50;99.90;;;;;;4145119;28;20058;-74
2024/01/16 01:11:15;;;;;;;6.90;3.83;;;2.50;99.90;;;;;;4145386;28;20030;-74
2024/01/16 01:13:16;;;;;;;5.82;3.70;;;2.50;99.90;;;;;;4138718;28;20053;-74
2024/01/16 01:15:16;;;;;;;10.02;3.92;;;2.50;99.90;;;;;;4144245;28;20509;-74
2024/01/16 01:17:17;;;;;;;9.45;3.30;;;2.50;99.90;;;;;;4144093;28;20065;-73
2024/01/16 01:19:18;;;;;;;5.25;3.47;;;2.50;99.90;;;;;;4144896;28;20062;-71
2024/01/16 01:21:18;;;;;;;5.13;3.17;;;2.50;99.90;;;;;;4139906;28;20473;-72
2024/01/16 01:23:19;;;;;;;8.02;3.60;;;2.50;99.90;;;;;;4127399;28;20451;-73
2024/01/16 01:25:20;;;;;;;10.05;3.90;;;2.50;99.90;;;;;;4144296;28;20038;-72
2024/01/16 01:27:20;;;;;;;6.13;3.60;;;2.50;99.90;;;;;;4113965;28;20031;-72
2024/01/16 01:29:21;;;;;;;4.28;3.03;;;2.50;99.90;;;;;;4145325;28;20500;-72
2024/01/16 01:31:22;;;;;;;4.70;3.00;;;2.50;99.90;;;;;;4158414;28;20550;-73
2024/01/16 01:33:23;;;;;;;6.68;3.20;;;2.50;99.90;;;;;;4157927;28;20049;-73
2024/01/16 01:35:23;;;;;;;3.83;2.47;;;2.50;99.90;;;;;;4126119;28;20118;-72
2024/01/16 01:37:24;;;;;;;6.78;3.72;;;2.50;99.90;;;;;;4160516;28;20500;-72
2024/01/16 01:39:25;;;;;;;6.82;3.47;;;2.50;99.90;;;;;;4143180;28;20371;-73
2024/01/16 01:41:25;;;;;;;11.20;3.55;;;2.50;99.90;;;;;;4159711;28;20123;-72
2024/01/16 01:43:26;;;;;;;4.95;3.00;;;2.50;99.90;;;;;;4143355;28;20530;-73
2024/01/16 01:45:27;;;;;;;7.78;3.53;;;2.50;99.90;;;;;;4154603;28;20037;-73
2024/01/16 01:47:27;;;;;;;10.05;3.55;;;2.50;99.90;;;;;;4160446;28;20354;-72
2024/01/16 01:49:28;;;;;;;4.72;3.10;;;2.50;99.90;;;;;;4142405;28;20390;-72
2024/01/16 01:51:29;;;;;;;7.75;3.10;;;2.50;99.90;;;;;;4159639;28;20029;-72
2024/01/16 01:53:32;;;;;;;5.03;2.70;;;2.50;99.90;;;;;;4130746;28;20542;-73
2024/01/16 01:55:33;;;;;;;6.63;3.25;;;2.60;99.90;;;;;;4159684;28;20127;-72
2024/01/16 01:57:34;;;;;;;5.80;3.00;;;2.60;99.90;;;;;;4160259;28;20116;-72
2024/01/16 01:59:35;;;;;;;5.18;2.80;;;2.60;99.90;;;;;;4127628;28;20069;-72
2024/01/16 02:01:35;;;;;;;6.05;3.28;;;2.50;99.90;;;;;;4158839;28;20025;-68
2024/01/16 02:03:42;;;;;;;4.40;2.65;;;2.60;99.90;;;;;;4159606;28;20029;-69
2024/01/16 02:05:42;;;;;;;3.70;2.90;;;2.60;99.90;;;;;;4158948;28;20113;-68
2024/01/16 02:07:43;;;;;;;4.75;2.55;;;2.60;99.90;;;;;;4142532;28;20469;-68
2024/01/16 02:09:44;;;;;;;4.93;2.97;;;2.60;99.90;;;;;;4175442;28;20033;-69
2024/01/16 02:11:45;;;;;;;4.93;3.05;;;2.60;99.90;;;;;;4143700;28;20026;-73
2024/01/16 02:13:46;;;;;;;4.57;3.20;;;2.60;99.90;;;;;;4143348;28;20148;-72
2024/01/16 02:15:47;;;;;;;7.30;3.53;;;2.60;99.90;;;;;;4158944;28;20053;-72
2024/01/16 02:17:48;;;;;;;6.00;3.28;;;2.60;99.90;;;;;;4160303;28;20037;-72
2024/01/16 02:19:48;;;;;;;8.90;4.05;;;2.60;99.90;;;;;;4160031;28;20479;-72
2024/01/16 02:21:51;;;;;;;6.07;4.03;;;2.60;99.90;;;;;;4158393;28;20384;-72
2024/01/16 02:23:51;;;;;;;;;;;2.60;99.90;;;;;;4157627;28;20041;-72
2024/01/16 02:25:52;;;;;;;7.13;3.85;;;2.60;99.90;;;;;;4159045;28;20548;-72
2024/01/16 02:27:53;;;;;;;5.68;3.83;;;2.60;99.90;;;;;;4160063;28;20037;-73
2024/01/16 02:29:53;;;;;;;8.75;4.32;;;2.60;99.90;;;;;;4146519;28;20056;-72
2024/01/16 02:31:54;;;;;;;8.98;4.60;;;2.60;99.90;;;;;;4150285;28;20491;-72
2024/01/16 02:33:54;;;;;;;8.38;4.30;;;2.60;99.90;;;;;;4136780;28;20058;-72
2024/01/16 02:35:55;;;;;;;13.05;4.68;;;2.60;99.90;;;;;;4134318;28;20039;-73
2024/01/16 02:37:56;;;;;;;10.20;4.57;;;2.70;99.90;;;;;;4155081;28;20029;-72
2024/01/16 02:39:56;;;;;;;6.30;4.88;;;2.60;99.90;;;;;;4130230;28;20109;-68
2024/01/16 02:41:57;;;;;;;10.95;4.70;;;2.60;99.90;;;;;;4135858;28;20034;-72
2024/01/16 02:43:58;;;;;;;9.10;4.85;;;2.60;99.90;;;;;;4128974;28;20035;-72
2024/01/16 02:45:58;;;;;;;9.98;4.63;;;2.60;99.90;;;;;;4119319;28;20047;-72
2024/01/16 02:47:59;;;;;;;10.43;5.25;;;2.60;99.90;;;;;;4132499;28;20041;-72
2024/01/16 02:50:00;;;;;;;7.50;4.10;;;2.60;99.90;;;;;;4144037;28;20560;-72
2024/01/16 02:52:00;;;;;;;6.25;4.43;;;2.60;99.90;;;;;;4129806;28;20073;-72
2024/01/16 02:54:01;;;;;;;5.40;3.95;;;2.60;99.90;;;;;;4127901;28;20567;-73
2024/01/16 02:56:02;;;;;;;9.18;4.72;;;2.60;99.90;;;;;;4131517;28;20050;-72
2024/01/16 02:58:03;;;;;;;9.95;4.38;;;2.60;99.90;;;;;;4127261;28;20523;-73
2024/01/16 03:00:04;;;;;;;7.90;4.53;;;2.60;99.90;;;;;;4125962;28;20038;-72
2024/01/16 03:02:05;;;;;;;6.90;4.30;;;2.60;99.90;;;;;;4132863;28;20041;-73
2024/01/16 03:04:05;;;;;;;12.07;5.32;;;2.50;99.90;;;;;;4144370;28;20103;-73
2024/01/16 03:06:06;;;;;;;6.18;4.40;;;2.50;99.90;;;;;;4143973;28;20049;-73
2024/01/16 03:08:07;;;;;;;9.85;4.90;;;2.50;99.90;;;;;;4144066;28;20072;-73
2024/01/16 03:10:08;;;;;;;7.68;4.32;;;2.50;99.90;;;;;;4135727;28;20042;-72
2024/01/16 03:12:08;;;;;;;8.27;5.78;;;2.60;99.90;;;;;;4120537;28;20483;-73
2024/01/16 03:14:09;;;;;;;8.93;5.30;;;2.50;99.90;;;;;;4127796;28;20411;-73
2024/01/16 03:16:12;;;;;;;7.72;4.63;;;2.50;99.90;;;;;;4141453;28;20478;-72
2024/01/16 03:18:13;;;;;;;8.23;5.35;;;2.60;99.90;;;;;;4143045;28;20065;-72
2024/01/16 03:20:14;;;;;;;8.77;5.45;;;2.60;99.90;;;;;;4125344;28;20383;-69
2024/01/16 03:22:14;;;;;;;10.40;5.88;;;2.60;99.90;;;;;;4139337;28;20502;-70
2024/01/16 03:24:15;;;;;;;11.68;5.68;;;2.50;99.90;;;;;;4143402;28;20041;-68
2024/01/16 03:26:16;;;;;;;9.30;6.45;;;2.50;99.90;;;;;;4135910;28;20045;-69
2024/01/16 03:28:17;;;;;;;11.35;6.22;;;2.50;99.90;;;;;;4126090;28;20034;-68
2024/01/16 03:30:17;;;;;;;11.20;6.07;;;2.60;99.90;;;;;;4140737;28;20057;-69
2024/01/16 03:32:18;;;;;;;7.75;5.78;;;2.60;99.90;;;;;;4129674;28;20496;-69
2024/01/16 03:34:19;;;;;;;10.57;5.63;;;2.60;99.90;;;;;;4143923;28;20030;-69
2024/01/16 03:36:19;;;;;;;18.38;6.38;;;2.50;99.90;;;;;;4142727;28;20659;-70
2024/01/16 03:38:20;;;;;;;11.40;6.50;;;2.60;99.90;;;;;;4142655;28;20026;-70
2024/01/16 03:40:21;;;;;;;12.75;5.88;;;2.60;99.90;;;;;;4140404;28;20061;-69
2024/01/16 03:42:21;;;;;;;9.60;5.88;;;2.50;99.90;;;;;;4140019;28;20033;-70
2024/01/16 03:44:22;;;;;;;8.45;5.53;;;2.50;99.90;;;;;;4140808;28;20030;-68
2024/01/16 03:46:22;;;;;;;11.02;6.05;;;2.50;99.90;;;;;;4154415;28;20552;-70
2024/01/16 03:48:23;;;;;;;8.63;5.50;;;2.50;99.90;;;;;;4123088;28;20081;-69
2024/01/16 03:50:24;;;;;;;6.95;4.88;;;2.50;99.90;;;;;;4122811;28;20479;-69
2024/01/16 03:52:24;;;;;;;10.68;5.80;;;2.50;99.90;;;;;;4141488;28;20022;-67
2024/01/16 03:54:25;;;;;;;10.38;5.68;;;2.50;99.90;;;;;;4143610;28;20367;-69
2024/01/16 03:56:26;;;;;;;6.82;4.45;;;2.50;99.90;;;;;;4151132;28;20461;-68
2024/01/16 03:58:26;;;;;;;7.97;4.40;;;2.50;99.90;;;;;;4146846;28;20441;-68
2024/01/16 04:00:27;;;;;;;9.60;4.60;;;2.50;99.90;;;;;;4142847;28;20620;-69
2024/01/16 04:02:27;;;;;;;9.20;4.15;;;2.50;99.90;;;;;;4146921;28;20474;-68
2024/01/16 04:04:28;;;;;;;7.68;3.95;;;2.50;99.90;;;;;;4141945;28;20383;-69
2024/01/16 04:06:29;;;;;;;5.28;3.80;;;2.50;99.90;;;;;;4140824;28;20037;-68
2024/01/16 04:08:30;;;;;;;7.30;3.60;;;2.50;99.90;;;;;;4159366;28;20030;-68
2024/01/16 04:10:30;;;;;;;7.18;4.03;;;2.50;99.90;;;;;;4165943;28;20025;-68
2024/01/16 04:12:31;;;;;;;5.68;3.78;;;2.50;99.90;;;;;;4167327;28;20022;-68
2024/01/16 04:14:32;;;;;;;8.25;4.10;;;2.50;99.90;;;;;;4145469;28;20375;-68
2024/01/16 04:16:32;;;;;;;9.25;3.22;;;2.50;99.90;;;;;;4153696;28;20114;-68
2024/01/16 04:18:37;;;;;;;8.90;3.78;;;2.50;99.90;;;;;;4131118;28;20026;-68
2024/01/16 04:20:38;;;;;;;4.88;2.90;;;2.50;99.90;;;;;;4137776;28;20491;-68
2024/01/16 04:22:38;;;;;;;4.90;2.50;;;2.50;99.90;;;;;;4145306;28;20057;-69
2024/01/16 04:24:39;;;;;;;5.47;3.30;;;2.50;99.90;;;;;;4142996;28;20053;-67
2024/01/16 04:26:39;;;;;;;6.78;2.92;;;2.50;99.90;;;;;;4152355;28;20022;-69
2024/01/16 04:28:40;;;;;;;7.03;3.28;;;2.50;99.90;;;;;;4150480;28;20026;-67
2024/01/16 04:30:41;;;;;;;6.45;2.88;;;2.50;99.90;;;;;;4142466;28;20104;-69
2024/01/16 04:32:41;;;;;;;5.57;2.50;;;2.60;99.90;;;;;;4149846;28;20514;-69
2024/01/16 04:34:42;;;;;;;5.25;2.42;;;2.50;99.90;;;;;;4125836;28;20420;-68
2024/01/16 04:36:43;;;;;;;6.50;2.30;;;2.50;99.90;;;;;;4110137;28;20502;-68
2024/01/16 04:38:44;;;;;;;5.53;2.08;;;2.50;99.90;;;;;;4134071;28;20030;-68
2024/01/16 04:40:44;;;;;;;5.22;2.30;;;2.60;99.90;;;;;;4145081;28;20509;-72
2024/01/16 04:42:45;;;;;;;3.60;1.80;;;2.50;99.90;;;;;;4160475;28;20033;-73
2024/01/16 04:44:45;;;;;;;5.13;1.88;;;2.50;99.90;;;;;;4127763;28;20031;-72
2024/01/16 04:46:46;;;;;;;14.27;2.40;;;2.50;99.90;;;;;;4126437;28;20039;-73
2024/01/16 04:48:47;;;;;;;7.28;2.53;;;2.50;99.90;;;;;;4144137;28;20038;-73
2024/01/16 04:50:47;;;;;;;6.25;2.03;;;2.50;99.90;;;;;;4144751;28;20399;-72
2024/01/16 04:52:48;;;;;;;4.85;2.25;;;2.50;99.90;;;;;;4129145;28;20043;-72
2024/01/16 04:54:49;;;;;;;3.22;1.67;;;2.50;99.90;;;;;;4144983;28;20538;-73
2024/01/16 04:56:49;;;;;;;7.80;2.20;;;2.50;99.90;;;;;;4155798;28;20063;-71
2024/01/16 04:58:50;;;;;;;3.33;2.03;;;2.50;99.90;;;;;;4111454;28;20054;-75
2024/01/16 05:00:51;;;;;;;5.97;2.67;;;2.50;99.90;;;;;;4160017;28;20124;-73
2024/01/16 05:02:52;;;;;;;7.07;2.90;;;2.50;99.90;;;;;;4126292;28;20458;-70
2024/01/16 05:04:53;;;;;;;5.47;2.80;;;2.50;99.90;;;;;;4116268;28;20046;-73
2024/01/16 05:06:53;;;;;;;5.25;2.75;;;2.50;99.90;;;;;;4137618;28;20480;-73
2024/01/16 05:08:54;;;;;;;8.02;3.40;;;2.50;99.90;;;;;;4141135;28;20030;-74
2024/01/16 05:10:54;;;;;;;8.68;3.05;;;2.50;99.90;;;;;;4145317;28;20041;-73
2024/01/16 05:12:55;;;;;;;6.85;3.63;;;2.50;99.90;;;;;;4126899;28;20495;-73
2024/01/16 05:14:55;;;;;;;6.97;4.13;;;2.50;99.90;;;;;;4111076;28;20883;-73
2024/01/16 05:16:56;;;;;;;9.77;5.60;;;2.40;99.90;;;;;;4144090;28;20049;-73
2024/01/16 05:18:57;;;;;;;7.78;5.13;;;2.40;99.90;;;;;;4145040;28;20110;-72
2024/01/16 05:20:57;;;;;;;7.25;5.10;;;2.40;99.90;;;;;;4131266;28;20061;-72
2024/01/16 05:22:58;;;;;;;10.07;5.28;;;2.40;99.90;;;;;;4144986;28;20049;-72
2024/01/16 05:25:00;;;;;;;8.10;5.43;;;2.40;99.90;;;;;;4131872;28;20515;-72
2024/01/16 05:27:00;;;;;;;10.13;5.75;;;2.40;99.90;;;;;;4145541;28;20437;-72
2024/01/16 05:29:01;;;;;;;9.35;6.05;;;2.40;99.90;;;;;;4144877;28;20050;-72
2024/01/16 05:31:01;;;;;;;11.48;7.22;;;2.40;99.90;;;;;;4144777;28;20148;-73
2024/01/16 05:33:02;;;;;;;12.80;7.03;;;2.40;99.90;;;;;;4169826;28;20445;-72
2024/01/16 05:35:03;;;;;;;11.88;7.32;;;2.40;99.90;;;;;;4159366;28;20041;-72
2024/01/16 05:37:04;;;;;;;11.45;7.20;;;2.30;99.90;;;;;;4142697;28;20167;-72
2024/01/16 05:39:05;;;;;;;17.02;8.23;;;2.30;99.90;;;;;;4161245;28;20425;-73
2024/01/16 05:41:06;;;;;;;14.57;8.27;;;2.30;99.90;;;;;;4160197;28;20033;-73
2024/01/16 05:43:06;;;;;;;11.88;8.77;;;2.30;99.90;;;;;;4161081;28;20083;-73
2024/01/16 05:45:08;;;;;;;13.40;9.35;;;2.30;99.90;;;;;;4160731;28;20401;-72
2024/01/16 05:47:08;;;;;;;17.02;9.75;;;2.30;99.90;;;;;;4160702;28;20398;-72
2024/01/16 05:49:09;;;;;;;18.30;10.18;;;2.30;99.90;;;;;;4140732;28;20034;-73
2024/01/16 05:51:10;;;;;;;13.68;9.30;;;2.20;99.90;;;;;;4158825;28;20064;-73
2024/01/16 05:53:10;;;;;;;15.02;9.32;;;2.20;99.90;;;;;;4160001;28;20044;-73
2024/01/16 05:55:11;;;;;;;13.55;8.82;;;2.30;99.90;;;;;;4145894;28;21306;-72
2024/01/16 05:57:11;;;;;;;12.15;8.18;;;2.30;99.90;;;;;;4160132;28;20053;-73
2024/01/16 05:59:12;;;;;;;14.27;8.77;;;2.20;99.90;;;;;;4147960;28;20057;-73
2024/01/16 06:01:15;;;;;;;17.90;8.25;;;2.20;99.90;;;;;;4156922;28;20064;-72
2024/01/16 06:03:16;;;;;;;21.25;8.25;;;2.20;99.90;;;;;;4160865;28;20045;-72
2024/01/16 06:05:17;;;;;;;19.00;8.38;;;2.20;99.90;;;;;;4141862;28;20067;-72
2024/01/16 06:07:17;;;;;;;17.80;8.32;;;2.20;99.90;;;;;;4160336;28;20036;-73
2024/01/16 06:09:18;;;;;;;14.55;7.45;;;2.10;99.90;;;;;;4163019;28;20037;-73
2024/01/16 06:11:20;;;;;;;10.57;6.60;;;2.10;99.90;;;;;;4159672;28;20030;-72
2024/01/16 06:13:22;;;;;;;16.57;7.30;;;2.10;99.90;;;;;;4159260;28;20557;-69
2024/01/16 06:15:23;;;;;;;11.77;6.05;;;2.10;99.90;;;;;;4144102;28;20075;-71
2024/01/16 06:17:23;;;;;;;11.15;6.18;;;2.10;99.90;;;;;;4156558;28;20033;-69
2024/01/16 06:19:24;;;;;;;13.63;6.07;;;2.10;99.90;;;;;;4140628;28;20044;-69
2024/01/16 06:21:25;;;;;;;14.30;6.63;;;2.10;99.90;;;;;;4139441;28;20046;-68
2024/01/16 06:23:25;;;;;;;11.43;5.93;;;2.00;99.90;;;;;;4153178;28;20401;-69
2024/01/16 06:25:26;;;;;;;10.48;5.45;;;2.10;99.90;;;;;;4154031;28;20657;-68
2024/01/16 06:27:26;;;;;;;11.15;4.68;;;2.10;99.90;;;;;;4152668;28;20539;-69
2024/01/16 06:29:27;;;;;;;19.08;7.18;;;2.00;99.90;;;;;;4154170;28;20072;-68
2024/01/16 06:31:27;;;;;;;15.48;6.47;;;2.10;99.90;;;;;;4153593;28;20072;-68
2024/01/16 06:33:28;;;;;;;13.75;4.72;;;2.00;99.90;;;;;;4134204;28;20053;-69
2024/01/16 06:35:29;;;;;;;12.45;4.43;;;2.00;99.90;;;;;;4152578;28;20069;-71
2024/01/16 06:37:29;;;;;;;12.30;4.18;;;2.00;99.90;;;;;;4154652;28;20456;-70
2024/01/16 06:39:30;;;;;;;11.43;4.85;;;2.00;99.90;;;;;;4141348;28;20498;-69
2024/01/16 06:41:30;;;;;;;9.43;4.22;;;2.00;99.90;;;;;;4155672;28;20453;-68
2024/01/16 06:43:31;;;;;;;11.32;4.50;;;2.00;99.90;;;;;;4137956;28;20462;-70
2024/01/16 06:45:32;;;;;;;11.98;4.47;;;2.00;99.90;;;;;;4141154;28;20538;-68
2024/01/16 06:47:32;;;;;;;17.88;5.28;;;2.00;99.90;;;;;;4154697;28;20040;-69
2024/01/16 06:49:33;;;;;;;14.52;4.78;;;2.00;99.90;;;;;;4153506;28;20037;-71
2024/01/16 06:51:33;;;;;;;7.10;3.80;;;2.00;99.90;;;;;;4135860;28;20077;-69
2024/01/16 06:53:34;;;;;;;10.77;4.28;;;2.00;99.90;;;;;;4136279;28;20553;-68
2024/01/16 06:55:35;;;;;;;32.50;5.50;;;2.00;99.90;;;;;;4140551;28;20129;-67
2024/01/16 06:57:35;;;;;;;11.73;4.65;;;2.00;99.90;;;;;;4136062;28;20156;-68
2024/01/16 06:59:36;;;;;;;10.70;4.25;;;1.90;99.90;;;;;;4152236;28;20034;-69
2024/01/16 07:01:37;;;;;;;10.68;4.57;;;1.90;99.90;;;;;;4154477;28;20151;-69
2024/01/16 07:03:37;;;;;;;14.80;4.25;;;2.00;99.90;;;;;;4137165;28;20065;-70
2024/01/16 07:05:40;;;;;;;10.65;4.45;;;1.90;99.90;;;;;;4155063;28;20504;-68
2024/01/16 07:07:41;;;;;;;13.10;4.47;;;1.90;99.90;;;;;;4136003;28;20041;-69
2024/01/16 07:09:41;;;;;;;13.25;4.82;;;1.90;99.90;;;;;;4152142;28;20115;-70
2024/01/16 07:11:42;;;;;;;13.98;5.05;;;1.90;99.90;;;;;;4153495;28;20045;-70
2024/01/16 07:13:43;;;;;;;13.82;4.80;;;1.90;99.90;;;;;;4154508;28;20417;-70
2024/01/16 07:15:44;;;;;;;11.52;3.97;;;1.90;99.90;;;;;;4153225;28;20041;-71
2024/01/16 07:17:45;;;;;;;10.10;4.18;;;1.80;99.90;;;;;;4136218;28;20053;-70
2024/01/16 07:19:45;;;;;;;11.25;4.70;;;1.80;99.90;;;;;;4155153;28;20102;-70
2024/01/16 07:21:46;;;;;;;12.27;4.38;;;1.80;99.90;;;;;;4136696;28;20034;-70
2024/01/16 07:23:47;;;;;;;10.05;3.80;;;1.80;99.90;;;;;;4153821;28;20045;-70
2024/01/16 07:25:48;;;;;;;8.48;3.70;;;1.80;99.90;;;;;;4136930;28;20088;-69
2024/01/16 07:27:49;;;;;;;10.10;3.90;;;1.80;99.90;;;;;;4137551;28;20530;-70
2024/01/16 07:29:50;;;;;;;11.05;4.03;;;1.80;99.90;;;;;;4147666;28;20722;-69
2024/01/16 07:31:52;;;;;;;10.45;4.05;;;1.80;99.90;;;;;;4138336;28;20166;-70
2024/01/16 07:33:52;;;;;;;16.08;4.68;;;1.80;99.90;;;;;;4154846;28;20577;-71
2024/01/16 07:35:53;;;;;;;14.27;4.35;;;1.80;99.90;;;;;;4156523;28;20186;-70
2024/01/16 07:37:54;;;;;;;13.80;3.90;;;1.70;99.90;;;;;;4154973;28;20056;-70
2024/01/16 07:39:54;;;;;;;10.63;4.40;;;1.60;99.90;;;;;;4151696;28;20667;-72
2024/01/16 07:41:55;;;;;;;9.52;4.28;;;1.70;99.90;;;;;;4142524;28;20052;-71
2024/01/16 07:43:55;;;;;;;16.73;4.03;;;1.60;99.90;;;;;;4122188;28;20092;-70
2024/01/16 07:45:56;;;;;;;8.55;3.85;;;1.60;99.90;;;;;;4155016;28;20046;-69
2024/01/16 07:47:56;;;;;;;7.63;3.33;;;1.60;99.90;;;;;;4137415;28;20607;-70
2024/01/16 07:49:58;;;;;;;15.00;4.35;;;1.60;99.90;;;;;;4158679;28;20045;-69
2024/01/16 07:51:58;;;;;;;10.80;4.15;;;1.70;99.90;;;;;;4152823;28;20048;-69
2024/01/16 07:54:09;;;;;;;10.23;3.30;;;1.60;99.90;;;;;;4141447;28;20041;-69
2024/01/16 07:56:10;;;;;;;10.07;3.65;;;1.60;99.90;;;;;;4139147;28;20042;-69
2024/01/16 07:58:11;;;;;;;10.15;3.85;;;1.70;99.90;;;;;;4137781;28;20038;-70
2024/01/16 08:00:12;;;;;;;6.63;3.10;;;1.70;99.90;;;;;;4141590;28;20046;-70
2024/01/16 08:02:12;;;;;;;8.65;3.90;;;1.60;99.90;;;;;;4141576;28;20974;-69
2024/01/16 08:04:13;;;;;;;10.07;4.05;;;1.60;99.90;;;;;;4141416;28;20038;-70
2024/01/16 08:06:14;;;;;;;11.18;3.72;;;1.60;99.90;;;;;;4140404;28;20042;-69
2024/01/16 08:08:14;;;;;;;8.48;3.35;;;1.60;99.90;;;;;;4142138;28;20042;-70
2024/01/16 08:10:15;;;;;;;11.05;4.18;;;1.60;99.90;;;;;;4157623;28;20071;-70
2024/01/16 08:12:16;;;;;;;7.75;3.17;;;1.60;99.90;;;;;;4141551;28;20030;-70
2024/01/16 08:14:17;;;;;;;13.13;4.63;;;1.60;99.90;;;;;;4158020;28;20056;-71
2024/01/16 08:16:17;;;;;;;11.57;3.95;;;1.70;99.90;;;;;;4123771;28;20034;-70
2024/01/16 08:18:18;;;;;;;10.07;3.80;;;1.70;99.90;;;;;;4139942;28;20042;-70
2024/01/16 08:20:18;;;;;;;8.43;3.70;;;1.70;99.90;;;;;;4158271;28;20506;-69
2024/01/16 08:22:19;;;;;;;10.95;3.88;;;1.70;99.90;;;;;;4142630;28;21604;-69
2024/01/16 08:24:20;;;;;;;14.50;4.30;;;1.60;99.90;;;;;;4159116;28;20033;-68
2024/01/16 08:26:21;;;;;;;17.00;4.15;;;1.70;99.90;;;;;;4141386;28;20045;-68
2024/01/16 08:28:24;;;;;;;12.30;3.72;;;1.60;99.90;;;;;;4159926;28;20167;-69
2024/01/16 08:30:24;;;;;;;11.35;4.13;;;1.60;99.90;;;;;;4157440;28;20026;-69
2024/01/16 08:32:25;;;;;;;12.90;3.85;;;1.60;99.90;;;;;;4158925;28;20457;-70
2024/01/16 08:34:25;;;;;;;14.68;3.47;;;1.60;99.90;;;;;;4172816;28;20701;-71
2024/01/16 08:36:26;;;;;;;16.50;4.63;;;1.60;99.90;;;;;;4156641;28;20113;-70
2024/01/16 08:38:27;;;;;;;15.27;4.20;;;1.60;99.90;;;;;;4126438;28;20081;-70
2024/01/16 08:40:28;;;;;;;12.45;3.83;;;1.60;99.90;;;;;;4140784;28;20443;-71
2024/01/16 08:42:28;;;;;;;13.45;3.83;;;1.60;99.90;;;;;;4157805;28;20029;-70
2024/01/16 08:44:29;;;;;;;9.32;4.07;;;1.60;99.90;;;;;;4158846;28;20045;-70
2024/01/16 08:46:30;;;;;;;9.43;3.60;;;1.60;99.90;;;;;;4157755;28;20041;-70
2024/01/16 08:48:31;;;;;;;13.38;4.03;;;1.60;99.90;;;;;;4141100;28;20115;-71
2024/01/16 08:50:32;;;;;;;8.93;3.65;;;1.60;99.90;;;;;;4158365;28;20041;-68
2024/01/16 08:52:33;;;;;;;11.68;3.92;;;1.60;99.90;;;;;;4158056;28;20158;-67
2024/01/16 08:54:33;;;;;;;8.60;3.33;;;1.50;99.90;;;;;;4140965;28;20123;-68
2024/01/16 08:56:34;;;;;;;17.70;4.45;;;1.50;99.90;;;;;;4157766;28;20037;-69
2024/01/16 08:58:37;;;;;;;10.07;3.65;;;1.50;99.90;;;;;;4157173;28;20025;-69
2024/01/16 09:00:38;;;;;;;9.25;3.25;;;1.50;99.90;;;;;;4157121;28;20549;-70
2024/01/16 09:02:38;;;;;;;12.10;4.03;;;1.50;99.90;;;;;;4157290;28;20057;-70
2024/01/16 09:04:39;;;;;;;11.10;4.10;;;1.60;99.90;;;;;;4140626;28;20035;-70
2024/01/16 09:06:39;;;;;;;10.35;3.90;;;1.50;99.90;;;;;;4139109;28;20546;-71
2024/01/16 09:08:40;;;;;;;10.23;3.50;;;1.60;99.90;;;;;;4157782;28;20470;-70
2024/01/16 09:10:41;;;;;;;12.75;3.92;;;1.60;99.90;;;;;;4141248;28;20026;-69
2024/01/16 09:12:41;;;;;;;14.93;4.10;;;1.60;99.90;;;;;;4140575;28;20044;-70
2024/01/16 09:14:42;;;;;;;16.23;4.18;;;1.60;99.90;;;;;;4125618;28;20057;-70
2024/01/16 09:16:43;;;;;;;12.40;3.95;;;1.60;99.90;;;;;;4156155;28;20032;-70
2024/01/16 09:18:44;;;;;;;15.77;4.93;;;1.60;99.90;;;;;;4141688;28;20042;-70
2024/01/16 09:20:45;;;;;;;16.48;5.32;;;1.60;99.90;;;;;;4156227;28;20079;-70
2024/01/16 09:22:45;;;;;;;11.70;4.50;;;1.70;99.90;;;;;;4140661;28;20105;-70
2024/01/16 09:24:46;;;;;;;10.68;4.38;;;1.70;99.90;;;;;;4154329;28;20033;-71
2024/01/16 09:26:47;;;;;;;14.10;4.40;;;1.60;99.90;;;;;;4156471;28;20029;-71
2024/01/16 09:28:47;;;;;;;8.02;3.63;;;1.60;99.90;;;;;;4140303;28;20046;-70
2024/01/16 09:30:48;;;;;;;12.82;3.42;;;1.70;99.90;;;;;;4140230;28;21695;-68
2024/01/16 09:32:52;;;;;;;9.43;3.67;;;1.70;99.90;;;;;;4157618;28;20069;-68
2024/01/16 09:34:52;;;;;;;13.00;3.70;;;1.70;99.90;;;;;;4157999;28;20041;-69
2024/01/16 09:36:53;;;;;;;15.18;3.60;;;1.70;99.90;;;;;;4157645;28;20494;-70
2024/01/16 09:38:53;;;;;;;18.63;4.15;;;1.70;99.90;;;;;;4157623;28;20033;-71
2024/01/16 09:40:58;;;;;;;9.60;4.22;;;1.60;99.90;;;;;;4155651;28;20045;-68
2024/01/16 09:42:59;;;;;;;10.85;3.67;;;1.70;99.90;;;;;;4146676;28;20037;-68
2024/01/16 09:45:03;;;;;;;12.32;3.67;;;1.70;99.90;;;;;;4140710;28;20459;-68
2024/01/16 09:47:04;;;;;;;16.70;4.25;;;1.70;99.90;;;;;;4157437;28;20048;-68
2024/01/16 09:49:06;;;;;;;13.33;4.20;;;1.70;99.90;;;;;;4140088;28;20058;-68
2024/01/16 09:51:07;;;;;;;10.60;3.63;;;1.70;99.90;;;;;;4156641;28;20280;-68
2024/01/16 09:53:07;;;;;;;11.23;4.13;;;1.70;99.90;;;;;;4157276;28;20630;-68
2024/01/16 09:55:10;;;;;;;13.20;4.25;;;1.70;99.90;;;;;;4138706;28;20568;-69
2024/01/16 09:57:13;;;;;;;13.75;3.45;;;1.70;99.90;;;;;;4139222;28;20494;-68
2024/01/16 09:59:18;;;;;;;12.98;4.30;;;1.80;99.90;;;;;;4139632;28;20030;-68
2024/01/16 10:01:20;;;;;;;9.32;3.70;;;1.80;99.90;;;;;;4155489;28;20056;-68
2024/01/16 10:03:21;;;;;;;16.55;4.50;;;1.80;99.90;;;;;;4141746;28;20033;-70
2024/01/16 10:05:22;;;;;;;7.55;3.45;;;1.80;99.90;;;;;;4156295;28;20374;-68
2024/01/16 10:07:27;;;;;;;15.93;5.35;;;1.80;99.90;;;;;;4139979;28;20467;-69
2024/01/16 10:09:29;;;;;;;14.88;4.43;;;1.80;99.90;;;;;;4138843;28;20462;-68
2024/01/16 10:11:30;;;;;;;16.25;4.40;;;1.90;99.90;;;;;;4153751;28;20038;-67
2024/01/16 10:13:32;;;;;;;11.38;3.38;;;1.80;99.90;;;;;;4139323;28;20038;-69
2024/01/16 10:15:35;;;;;;;10.15;3.47;;;1.80;99.90;;;;;;4156156;28;20074;-71
2024/01/16 10:17:40;;;;;;;7.70;3.28;;;1.80;99.90;;;;;;4170640;28;20561;-70
2024/01/16 10:19:49;;;;;;;11.77;4.43;;;1.90;99.90;;;;;;4137479;28;20065;-68
2024/01/16 10:21:51;;;;;;;9.32;3.97;;;1.90;99.90;;;;;;4154596;28;20053;-69
2024/01/16 10:23:52;;;;;;;11.30;3.85;;;2.00;99.90;;;;;;4156492;28;20025;-68
2024/01/16 10:26:05;;;;;;;10.45;4.28;;;2.00;99.90;;;;;;4155972;28;20657;-70
2024/01/16 10:28:08;;;;;;;11.55;4.05;;;2.10;99.90;;;;;;4169455;28;20032;-69
2024/01/16 10:30:10;;;;;;;8.45;3.75;;;2.00;99.90;;;;;;4137928;28;20042;-69
2024/01/16 10:32:10;;;;;;;10.27;4.35;;;2.00;99.90;;;;;;4171298;28;20092;-68
2024/01/16 10:34:21;;;;;;;9.02;3.80;;;2.10;99.90;;;;;;4156244;28;20407;-69